sensor_id;sensor_type;location;lat;lon;timestamp;pressure;altitude;pressure_sealevel;temperature;humidity
73594;BME280;64760;53.404;23.498;2023-05-23T00:02:11;99680.13;;;10.28;100.00
73594;BME280;64760;53.404;23.498;2023-05-23T00:04:38;99684.31;;;10.38;100.00
73594;BME280;64760;53.404;23.498;2023-05-23T00:07:04;99682.84;;;10.35;100.00
73594;BME280;64760;53.404;23.498;2023-05-23T00:09:31;99686.94;;;10.31;100.00
73594;BME280;64760;53.404;23.498;2023-05-23T00:11:57;99682.19;;;10.26;100.00
73594;BME280;64760;53.404;23.498;2023-05-23T00:14:23;99687.69;;;10.18;100.00
73594;BME280;64760;53.404;23.498;2023-05-23T00:16:49;99680.53;;;10.04;100.00
73594;BME280;64760;53.404;23.498;2023-05-23T00:19:16;99675.53;;;9.95;100.00
73594;BME280;64760;53.404;23.498;2023-05-23T00:21:45;99682.84;;;9.86;100.00
73594;BME280;64760;53.404;23.498;2023-05-23T00:24:16;99684.06;;;9.83;100.00
73594;BME280;64760;53.404;23.498;2023-05-23T00:26:44;99686.59;;;9.91;100.00
73594;BME280;64760;53.404;23.498;2023-05-23T00:29:10;99682.38;;;10.04;100.00
73594;BME280;64760;53.404;23.498;2023-05-23T00:31:42;99687.50;;;9.99;100.00
73594;BME280;64760;53.404;23.498;2023-05-23T00:34:12;99685.31;;;9.87;100.00
73594;BME280;64760;53.404;23.498;2023-05-23T00:36:39;99685.22;;;9.74;100.00
73594;BME280;64760;53.404;23.498;2023-05-23T00:39:07;99690.06;;;9.64;100.00
73594;BME280;64760;53.404;23.498;2023-05-23T00:41:34;99681.53;;;9.54;100.00
73594;BME280;64760;53.404;23.498;2023-05-23T00:44:04;99685.78;;;9.49;100.00
73594;BME280;64760;53.404;23.498;2023-05-23T00:46:30;99689.69;;;9.46;100.00
73594;BME280;64760;53.404;23.498;2023-05-23T00:48:57;99688.69;;;9.47;100.00
73594;BME280;64760;53.404;23.498;2023-05-23T00:51:23;99692.53;;;9.44;100.00
73594;BME280;64760;53.404;23.498;2023-05-23T00:53:50;99685.34;;;9.45;100.00
73594;BME280;64760;53.404;23.498;2023-05-23T00:56:17;99687.41;;;9.43;100.00
73594;BME280;64760;53.404;23.498;2023-05-23T00:58:44;99685.47;;;9.37;100.00
73594;BME280;64760;53.404;23.498;2023-05-23T01:01:10;99694.50;;;9.36;100.00
73594;BME280;64760;53.404;23.498;2023-05-23T01:03:36;99692.88;;;9.35;100.00
73594;BME280;64760;53.404;23.498;2023-05-23T01:06:02;99698.00;;;9.36;100.00
73594;BME280;64760;53.404;23.498;2023-05-23T01:08:29;99695.53;;;9.35;100.00
73594;BME280;64760;53.404;23.498;2023-05-23T01:11:01;99705.03;;;9.37;100.00
73594;BME280;64760;53.404;23.498;2023-05-23T01:13:42;99706.13;;;9.43;100.00
73594;BME280;64760;53.404;23.498;2023-05-23T01:16:16;99699.75;;;9.44;100.00
73594;BME280;64760;53.404;23.498;2023-05-23T01:18:51;99696.50;;;9.49;100.00
73594;BME280;64760;53.404;23.498;2023-05-23T01:21:23;99698.88;;;9.58;100.00
73594;BME280;64760;53.404;23.498;2023-05-23T01:29:46;99696.81;;;9.81;100.00
73594;BME280;64760;53.404;23.498;2023-05-23T01:32:16;99692.09;;;9.83;100.00
73594;BME280;64760;53.404;23.498;2023-05-23T01:34:42;99691.94;;;9.91;100.00
73594;BME280;64760;53.404;23.498;2023-05-23T01:37:09;99690.53;;;9.96;100.00
73594;BME280;64760;53.404;23.498;2023-05-23T01:39:37;99688.50;;;9.98;100.00
73594;BME280;64760;53.404;23.498;2023-05-23T01:42:03;99695.47;;;9.92;100.00
73594;BME280;64760;53.404;23.498;2023-05-23T01:44:33;99698.72;;;9.87;100.00
73594;BME280;64760;53.404;23.498;2023-05-23T01:47:02;99695.59;;;9.84;100.00
73594;BME280;64760;53.404;23.498;2023-05-23T01:49:29;99690.69;;;9.87;100.00
73594;BME280;64760;53.404;23.498;2023-05-23T01:51:58;99685.41;;;9.94;100.00
73594;BME280;64760;53.404;23.498;2023-05-23T01:54:25;99687.16;;;10.08;100.00
73594;BME280;64760;53.404;23.498;2023-05-23T01:56:57;99688.06;;;10.15;100.00
73594;BME280;64760;53.404;23.498;2023-05-23T01:59:24;99686.50;;;10.27;100.00
73594;BME280;64760;53.404;23.498;2023-05-23T02:01:51;99679.34;;;10.34;100.00
73594;BME280;64760;53.404;23.498;2023-05-23T02:04:18;99684.97;;;10.46;100.00
73594;BME280;64760;53.404;23.498;2023-05-23T02:06:44;99685.00;;;10.53;100.00
73594;BME280;64760;53.404;23.498;2023-05-23T02:09:12;99672.28;;;10.61;100.00
73594;BME280;64760;53.404;23.498;2023-05-23T02:11:38;99662.00;;;10.71;100.00
73594;BME280;64760;53.404;23.498;2023-05-23T02:14:06;99667.00;;;10.81;100.00
73594;BME280;64760;53.404;23.498;2023-05-23T02:16:32;99664.59;;;10.93;100.00
73594;BME280;64760;53.404;23.498;2023-05-23T02:19:01;99663.38;;;11.02;100.00
73594;BME280;64760;53.404;23.498;2023-05-23T02:21:28;99662.16;;;11.11;100.00
73594;BME280;64760;53.404;23.498;2023-05-23T02:23:54;99660.13;;;11.19;100.00
73594;BME280;64760;53.404;23.498;2023-05-23T02:26:20;99655.41;;;11.35;100.00
73594;BME280;64760;53.404;23.498;2023-05-23T02:28:46;99657.91;;;11.43;98.96
73594;BME280;64760;53.404;23.498;2023-05-23T02:31:14;99656.91;;;11.50;97.38
73594;BME280;64760;53.404;23.498;2023-05-23T02:33:42;99654.88;;;11.65;96.14
73594;BME280;64760;53.404;23.498;2023-05-23T02:36:08;99651.59;;;11.76;94.28
73594;BME280;64760;53.404;23.498;2023-05-23T02:38:34;99651.19;;;11.93;92.41
73594;BME280;64760;53.404;23.498;2023-05-23T02:41:00;99653.41;;;11.69;93.32
73594;BME280;64760;53.404;23.498;2023-05-23T02:43:27;99657.75;;;11.64;94.55
73594;BME280;64760;53.404;23.498;2023-05-23T02:45:53;99652.19;;;11.65;94.65
73594;BME280;64760;53.404;23.498;2023-05-23T02:48:19;99647.22;;;11.62;94.13
73594;BME280;64760;53.404;23.498;2023-05-23T02:50:45;99653.63;;;11.68;94.20
73594;BME280;64760;53.404;23.498;2023-05-23T02:53:12;99662.09;;;11.71;93.87
73594;BME280;64760;53.404;23.498;2023-05-23T02:55:38;99661.44;;;11.63;94.77
73594;BME280;64760;53.404;23.498;2023-05-23T02:58:04;99652.78;;;11.54;94.74
73594;BME280;64760;53.404;23.498;2023-05-23T03:00:30;99651.50;;;11.44;94.15
73594;BME280;64760;53.404;23.498;2023-05-23T03:02:58;99654.56;;;11.27;95.42
73594;BME280;64760;53.404;23.498;2023-05-23T03:05:24;99655.19;;;11.23;95.85
73594;BME280;64760;53.404;23.498;2023-05-23T03:07:50;99646.53;;;11.21;96.22
73594;BME280;64760;53.404;23.498;2023-05-23T03:10:17;99651.47;;;11.24;96.15
73594;BME280;64760;53.404;23.498;2023-05-23T03:12:44;99652.72;;;11.35;95.86
73594;BME280;64760;53.404;23.498;2023-05-23T03:15:10;99650.06;;;11.48;95.37
73594;BME280;64760;53.404;23.498;2023-05-23T03:17:39;99658.75;;;11.63;94.87
73594;BME280;64760;53.404;23.498;2023-05-23T03:20:05;99656.94;;;11.70;94.25
73594;BME280;64760;53.404;23.498;2023-05-23T03:22:35;99647.88;;;11.77;94.56
73594;BME280;64760;53.404;23.498;2023-05-23T03:25:02;99657.56;;;11.92;94.35
73594;BME280;64760;53.404;23.498;2023-05-23T03:27:29;99652.63;;;12.02;92.86
73594;BME280;64760;53.404;23.498;2023-05-23T03:29:55;99654.88;;;12.11;91.52
73594;BME280;64760;53.404;23.498;2023-05-23T03:32:21;99649.03;;;12.34;91.45
73594;BME280;64760;53.404;23.498;2023-05-23T03:34:47;99653.81;;;12.45;90.45
73594;BME280;64760;53.404;23.498;2023-05-23T03:37:14;99646.09;;;12.55;88.85
73594;BME280;64760;53.404;23.498;2023-05-23T03:39:40;99644.84;;;12.64;87.84
73594;BME280;64760;53.404;23.498;2023-05-23T03:42:06;99653.69;;;12.78;86.64
73594;BME280;64760;53.404;23.498;2023-05-23T03:44:33;99652.84;;;12.84;85.86
73594;BME280;64760;53.404;23.498;2023-05-23T03:47:00;99641.88;;;12.86;87.16
73594;BME280;64760;53.404;23.498;2023-05-23T03:49:25;99640.81;;;12.93;88.08
73594;BME280;64760;53.404;23.498;2023-05-23T03:51:52;99648.00;;;12.99;88.89
73594;BME280;64760;53.404;23.498;2023-05-23T03:54:18;99647.16;;;13.05;89.10
73594;BME280;64760;53.404;23.498;2023-05-23T03:56:45;99646.13;;;13.13;88.77
73594;BME280;64760;53.404;23.498;2023-05-23T03:59:11;99640.31;;;13.16;88.68
73594;BME280;64760;53.404;23.498;2023-05-23T04:01:37;99644.16;;;13.27;88.23
73594;BME280;64760;53.404;23.498;2023-05-23T04:04:04;99634.59;;;13.37;87.17
73594;BME280;64760;53.404;23.498;2023-05-23T04:06:33;99630.56;;;13.46;87.15
73594;BME280;64760;53.404;23.498;2023-05-23T04:08:59;99629.94;;;13.51;87.35
73594;BME280;64760;53.404;23.498;2023-05-23T04:11:26;99621.75;;;13.64;85.85
73594;BME280;64760;53.404;23.498;2023-05-23T04:13:52;99626.22;;;13.77;85.30
73594;BME280;64760;53.404;23.498;2023-05-23T04:16:19;99634.19;;;13.90;85.01
73594;BME280;64760;53.404;23.498;2023-05-23T04:18:47;99635.84;;;13.91;85.97
73594;BME280;64760;53.404;23.498;2023-05-23T04:21:13;99629.63;;;13.90;86.21
73594;BME280;64760;53.404;23.498;2023-05-23T04:23:49;99621.59;;;13.84;85.61
73594;BME280;64760;53.404;23.498;2023-05-23T04:26:15;99618.47;;;13.87;84.81
73594;BME280;64760;53.404;23.498;2023-05-23T04:28:47;99623.78;;;13.93;84.49
73594;BME280;64760;53.404;23.498;2023-05-23T04:31:14;99627.03;;;14.02;84.91
73594;BME280;64760;53.404;23.498;2023-05-23T04:33:41;99630.22;;;14.17;85.05
73594;BME280;64760;53.404;23.498;2023-05-23T04:36:08;99627.16;;;14.32;85.29
73594;BME280;64760;53.404;23.498;2023-05-23T04:38:36;99627.84;;;14.45;82.90
73594;BME280;64760;53.404;23.498;2023-05-23T04:41:05;99633.56;;;14.55;80.35
73594;BME280;64760;53.404;23.498;2023-05-23T04:43:37;99620.97;;;14.68;79.36
73594;BME280;64760;53.404;23.498;2023-05-23T04:46:26;99626.66;;;14.78;76.75
73594;BME280;64760;53.404;23.498;2023-05-23T04:49:05;99625.69;;;14.90;77.85
73594;BME280;64760;53.404;23.498;2023-05-23T04:51:32;99621.78;;;15.04;77.84
73594;BME280;64760;53.404;23.498;2023-05-23T04:54:08;99620.75;;;15.17;75.52
73594;BME280;64760;53.404;23.498;2023-05-23T04:56:34;99627.00;;;15.29;74.34
73594;BME280;64760;53.404;23.498;2023-05-23T04:59:00;99626.00;;;15.42;75.89
73594;BME280;64760;53.404;23.498;2023-05-23T05:01:27;99621.94;;;15.51;76.27
73594;BME280;64760;53.404;23.498;2023-05-23T05:03:54;99620.66;;;15.54;77.29
73594;BME280;64760;53.404;23.498;2023-05-23T05:06:22;99621.00;;;15.57;77.17
73594;BME280;64760;53.404;23.498;2023-05-23T05:08:48;99621.38;;;15.61;76.39
73594;BME280;64760;53.404;23.498;2023-05-23T05:11:15;99622.69;;;15.70;75.64
73594;BME280;64760;53.404;23.498;2023-05-23T05:13:41;99624.25;;;15.89;76.04
73594;BME280;64760;53.404;23.498;2023-05-23T05:16:07;99628.59;;;16.02;76.55
73594;BME280;64760;53.404;23.498;2023-05-23T05:18:34;99615.91;;;16.25;75.55
73594;BME280;64760;53.404;23.498;2023-05-23T05:21:02;99615.53;;;16.45;72.96
73594;BME280;64760;53.404;23.498;2023-05-23T05:23:30;99621.31;;;16.60;66.75
73594;BME280;64760;53.404;23.498;2023-05-23T05:25:58;99618.34;;;16.73;62.90
73594;BME280;64760;53.404;23.498;2023-05-23T05:28:25;99615.84;;;16.83;62.41
73594;BME280;64760;53.404;23.498;2023-05-23T05:30:53;99613.22;;;16.88;60.12
73594;BME280;64760;53.404;23.498;2023-05-23T05:33:21;99615.91;;;17.00;59.64
73594;BME280;64760;53.404;23.498;2023-05-23T05:35:51;99609.63;;;17.11;60.97
73594;BME280;64760;53.404;23.498;2023-05-23T05:38:17;99615.22;;;17.21;59.86
73594;BME280;64760;53.404;23.498;2023-05-23T05:40:43;99609.25;;;17.36;59.87
73594;BME280;64760;53.404;23.498;2023-05-23T05:43:10;99611.44;;;17.51;58.62
73594;BME280;64760;53.404;23.498;2023-05-23T05:45:37;99614.53;;;17.71;57.97
73594;BME280;64760;53.404;23.498;2023-05-23T05:48:04;99610.50;;;17.90;56.42
73594;BME280;64760;53.404;23.498;2023-05-23T05:50:31;99618.28;;;18.20;58.07
73594;BME280;64760;53.404;23.498;2023-05-23T05:52:58;99614.34;;;18.49;58.84
73594;BME280;64760;53.404;23.498;2023-05-23T05:55:24;99605.25;;;18.77;57.79
73594;BME280;64760;53.404;23.498;2023-05-23T05:57:53;99602.72;;;18.92;55.65
73594;BME280;64760;53.404;23.498;2023-05-23T06:00:19;99603.91;;;19.01;55.19
73594;BME280;64760;53.404;23.498;2023-05-23T06:02:51;99601.81;;;19.08;54.73
73594;BME280;64760;53.404;23.498;2023-05-23T06:05:31;99605.03;;;19.05;53.96
73594;BME280;64760;53.404;23.498;2023-05-23T06:07:57;99598.41;;;18.96;53.46
73594;BME280;64760;53.404;23.498;2023-05-23T06:10:23;99605.34;;;18.87;53.77
73594;BME280;64760;53.404;23.498;2023-05-23T06:12:50;99610.16;;;18.80;53.93
73594;BME280;64760;53.404;23.498;2023-05-23T06:15:16;99611.69;;;18.71;55.40
73594;BME280;64760;53.404;23.498;2023-05-23T06:17:42;99600.84;;;18.71;54.88
73594;BME280;64760;53.404;23.498;2023-05-23T06:20:11;99603.56;;;18.71;55.14
73594;BME280;64760;53.404;23.498;2023-05-23T06:22:40;99611.22;;;18.79;55.78
73594;BME280;64760;53.404;23.498;2023-05-23T06:25:07;99594.19;;;18.84;56.31
73594;BME280;64760;53.404;23.498;2023-05-23T06:27:33;99600.50;;;18.89;56.66
73594;BME280;64760;53.404;23.498;2023-05-23T06:29:59;99592.97;;;18.96;55.60
73594;BME280;64760;53.404;23.498;2023-05-23T06:32:28;99594.72;;;19.07;56.23
73594;BME280;64760;53.404;23.498;2023-05-23T06:34:55;99592.66;;;19.14;58.26
73594;BME280;64760;53.404;23.498;2023-05-23T06:37:21;99588.22;;;19.08;59.57
73594;BME280;64760;53.404;23.498;2023-05-23T06:39:47;99591.00;;;19.13;60.26
73594;BME280;64760;53.404;23.498;2023-05-23T06:42:14;99587.53;;;19.18;60.61
73594;BME280;64760;53.404;23.498;2023-05-23T06:45:08;99589.94;;;19.14;61.34
73594;BME280;64760;53.404;23.498;2023-05-23T06:47:34;99592.81;;;19.30;59.73
73594;BME280;64760;53.404;23.498;2023-05-23T06:50:02;99592.88;;;19.40;59.32
73594;BME280;64760;53.404;23.498;2023-05-23T06:52:29;99590.84;;;19.52;58.66
73594;BME280;64760;53.404;23.498;2023-05-23T06:54:56;99587.66;;;19.60;58.82
73594;BME280;64760;53.404;23.498;2023-05-23T06:57:22;99587.25;;;19.73;58.69
73594;BME280;64760;53.404;23.498;2023-05-23T06:59:49;99580.78;;;19.84;56.09
73594;BME280;64760;53.404;23.498;2023-05-23T07:02:15;99582.31;;;20.02;55.95
73594;BME280;64760;53.404;23.498;2023-05-23T07:04:41;99578.28;;;20.14;54.54
73594;BME280;64760;53.404;23.498;2023-05-23T07:07:14;99579.97;;;20.21;51.36
73594;BME280;64760;53.404;23.498;2023-05-23T07:09:42;99579.50;;;20.29;48.22
73594;BME280;64760;53.404;23.498;2023-05-23T07:12:13;99580.94;;;20.46;48.65
73594;BME280;64760;53.404;23.498;2023-05-23T07:14:42;99572.03;;;20.61;47.76
73594;BME280;64760;53.404;23.498;2023-05-23T07:17:09;99579.16;;;20.72;46.05
73594;BME280;64760;53.404;23.498;2023-05-23T07:19:36;99574.31;;;20.84;45.50
73594;BME280;64760;53.404;23.498;2023-05-23T07:22:02;99568.09;;;20.94;46.12
73594;BME280;64760;53.404;23.498;2023-05-23T07:24:30;99567.53;;;20.92;44.84
73594;BME280;64760;53.404;23.498;2023-05-23T07:26:56;99565.13;;;21.05;44.16
73594;BME280;64760;53.404;23.498;2023-05-23T07:29:24;99559.97;;;21.19;43.04
73594;BME280;64760;53.404;23.498;2023-05-23T07:31:52;99559.19;;;21.29;41.20
73594;BME280;64760;53.404;23.498;2023-05-23T07:34:20;99557.00;;;21.36;42.26
73594;BME280;64760;53.404;23.498;2023-05-23T07:36:58;99557.31;;;21.49;42.96
73594;BME280;64760;53.404;23.498;2023-05-23T07:39:26;99553.75;;;21.59;42.83
73594;BME280;64760;53.404;23.498;2023-05-23T07:41:54;99553.47;;;21.71;43.74
73594;BME280;64760;53.404;23.498;2023-05-23T07:44:21;99558.38;;;21.74;41.61
73594;BME280;64760;53.404;23.498;2023-05-23T07:46:47;99554.81;;;21.83;41.80
73594;BME280;64760;53.404;23.498;2023-05-23T07:49:14;99554.28;;;21.86;40.73
73594;BME280;64760;53.404;23.498;2023-05-23T07:51:40;99553.19;;;22.02;40.77
73594;BME280;64760;53.404;23.498;2023-05-23T07:54:06;99554.28;;;22.12;40.42
73594;BME280;64760;53.404;23.498;2023-05-23T07:56:33;99554.28;;;22.17;38.67
73594;BME280;64760;53.404;23.498;2023-05-23T07:58:59;99556.69;;;22.23;39.33
73594;BME280;64760;53.404;23.498;2023-05-23T08:01:25;99550.16;;;22.29;39.20
73594;BME280;64760;53.404;23.498;2023-05-23T08:04:04;99547.13;;;22.36;39.25
73594;BME280;64760;53.404;23.498;2023-05-23T08:06:39;99552.00;;;22.39;39.39
73594;BME280;64760;53.404;23.498;2023-05-23T08:09:09;99550.91;;;22.45;35.79
73594;BME280;64760;53.404;23.498;2023-05-23T08:11:40;99554.16;;;22.52;38.05
73594;BME280;64760;53.404;23.498;2023-05-23T08:14:07;99557.66;;;22.68;39.91
73594;BME280;64760;53.404;23.498;2023-05-23T08:16:36;99552.72;;;22.80;38.35
73594;BME280;64760;53.404;23.498;2023-05-23T08:19:06;99548.06;;;22.75;38.87
73594;BME280;64760;53.404;23.498;2023-05-23T08:21:34;99539.28;;;22.83;37.78
73594;BME280;64760;53.404;23.498;2023-05-23T08:24:01;99537.38;;;22.84;36.14
73594;BME280;64760;53.404;23.498;2023-05-23T08:26:27;99535.66;;;22.98;36.84
73594;BME280;64760;53.404;23.498;2023-05-23T08:29:01;99538.25;;;23.18;35.86
73594;BME280;64760;53.404;23.498;2023-05-23T08:31:28;99533.47;;;23.39;35.26
73594;BME280;64760;53.404;23.498;2023-05-23T08:33:55;99543.38;;;23.30;35.32
73594;BME280;64760;53.404;23.498;2023-05-23T08:36:21;99530.66;;;23.49;34.85
73594;BME280;64760;53.404;23.498;2023-05-23T08:38:49;99533.97;;;23.46;34.86
73594;BME280;64760;53.404;23.498;2023-05-23T08:41:24;99527.41;;;23.47;35.88
73594;BME280;64760;53.404;23.498;2023-05-23T08:43:59;99531.78;;;23.48;35.74
73594;BME280;64760;53.404;23.498;2023-05-23T08:46:31;99524.53;;;23.62;35.66
73594;BME280;64760;53.404;23.498;2023-05-23T08:48:59;99525.09;;;23.64;36.12
73594;BME280;64760;53.404;23.498;2023-05-23T08:51:27;99527.72;;;23.74;35.61
73594;BME280;64760;53.404;23.498;2023-05-23T08:53:57;99529.75;;;23.93;34.69
73594;BME280;64760;53.404;23.498;2023-05-23T08:56:27;99531.59;;;23.97;33.58
73594;BME280;64760;53.404;23.498;2023-05-23T08:58:54;99532.66;;;24.01;33.61
73594;BME280;64760;53.404;23.498;2023-05-23T09:01:22;99524.03;;;24.18;32.11
73594;BME280;64760;53.404;23.498;2023-05-23T09:03:52;99521.75;;;24.25;31.64
73594;BME280;64760;53.404;23.498;2023-05-23T09:06:24;99528.91;;;24.21;31.25
73594;BME280;64760;53.404;23.498;2023-05-23T09:08:51;99529.81;;;24.16;32.40
73594;BME280;64760;53.404;23.498;2023-05-23T09:11:19;99537.25;;;24.35;30.90
73594;BME280;64760;53.404;23.498;2023-05-23T09:13:48;99529.00;;;24.40;30.41
73594;BME280;64760;53.404;23.498;2023-05-23T09:16:17;99530.72;;;24.54;30.03
73594;BME280;64760;53.404;23.498;2023-05-23T09:18:54;99521.50;;;24.45;31.04
73594;BME280;64760;53.404;23.498;2023-05-23T09:21:23;99519.75;;;24.54;31.41
73594;BME280;64760;53.404;23.498;2023-05-23T09:24:11;99515.88;;;24.79;31.00
73594;BME280;64760;53.404;23.498;2023-05-23T09:26:38;99519.63;;;24.88;30.63
73594;BME280;64760;53.404;23.498;2023-05-23T09:29:05;99512.50;;;25.06;30.67
73594;BME280;64760;53.404;23.498;2023-05-23T09:31:32;99514.19;;;25.20;30.55
73594;BME280;64760;53.404;23.498;2023-05-23T09:34:01;99506.78;;;25.21;29.33
73594;BME280;64760;53.404;23.498;2023-05-23T09:36:28;99507.97;;;25.15;29.61
73594;BME280;64760;53.404;23.498;2023-05-23T09:39:02;99513.69;;;25.18;29.26
73594;BME280;64760;53.404;23.498;2023-05-23T09:41:34;99505.38;;;25.23;29.58
73594;BME280;64760;53.404;23.498;2023-05-23T09:44:06;99501.78;;;25.42;29.92
73594;BME280;64760;53.404;23.498;2023-05-23T09:46:35;99511.13;;;25.41;28.88
73594;BME280;64760;53.404;23.498;2023-05-23T09:49:14;99511.72;;;25.38;28.27
73594;BME280;64760;53.404;23.498;2023-05-23T09:51:40;99514.91;;;25.45;28.08
73594;BME280;64760;53.404;23.498;2023-05-23T09:54:08;99509.38;;;25.31;28.93
73594;BME280;64760;53.404;23.498;2023-05-23T09:56:38;99506.31;;;25.33;29.88
73594;BME280;64760;53.404;23.498;2023-05-23T09:59:07;99503.34;;;25.48;29.81
73594;BME280;64760;53.404;23.498;2023-05-23T10:01:37;99505.06;;;25.44;29.50
73594;BME280;64760;53.404;23.498;2023-05-23T10:04:03;99508.38;;;25.41;30.32
73594;BME280;64760;53.404;23.498;2023-05-23T10:06:50;99502.22;;;25.67;29.25
73594;BME280;64760;53.404;23.498;2023-05-23T10:09:20;99516.38;;;25.75;28.74
73594;BME280;64760;53.404;23.498;2023-05-23T10:14:44;99503.00;;;26.14;26.81
73594;BME280;64760;53.404;23.498;2023-05-23T10:17:34;99504.19;;;26.08;28.29
73594;BME280;64760;53.404;23.498;2023-05-23T10:20:14;99502.59;;;26.21;29.05
73594;BME280;64760;53.404;23.498;2023-05-23T10:22:41;99501.09;;;26.42;29.02
73594;BME280;64760;53.404;23.498;2023-05-23T10:25:08;99503.03;;;26.55;28.49
73594;BME280;64760;53.404;23.498;2023-05-23T10:27:38;99499.41;;;26.82;25.76
73594;BME280;64760;53.404;23.498;2023-05-23T10:30:06;99503.47;;;26.98;27.39
73594;BME280;64760;53.404;23.498;2023-05-23T10:32:33;99499.16;;;27.05;26.96
73594;BME280;64760;53.404;23.498;2023-05-23T10:37:41;99494.34;;;26.61;27.53
73594;BME280;64760;53.404;23.498;2023-05-23T10:42:48;99497.31;;;26.24;27.50
73594;BME280;64760;53.404;23.498;2023-05-23T10:45:19;99490.56;;;26.03;28.60
73594;BME280;64760;53.404;23.498;2023-05-23T10:47:49;99492.88;;;25.96;29.01
73594;BME280;64760;53.404;23.498;2023-05-23T10:50:31;99488.22;;;26.10;30.39
73594;BME280;64760;53.404;23.498;2023-05-23T10:53:00;99491.44;;;26.31;30.24
73594;BME280;64760;53.404;23.498;2023-05-23T10:55:31;99484.41;;;26.38;29.50
73594;BME280;64760;53.404;23.498;2023-05-23T10:58:19;99481.84;;;26.42;28.23
73594;BME280;64760;53.404;23.498;2023-05-23T11:00:54;99490.38;;;26.40;28.78
73594;BME280;64760;53.404;23.498;2023-05-23T11:05:58;99478.28;;;26.55;27.49
73594;BME280;64760;53.404;23.498;2023-05-23T11:08:26;99480.25;;;26.77;27.31
73594;BME280;64760;53.404;23.498;2023-05-23T11:11:00;99468.44;;;26.90;27.07
73594;BME280;64760;53.404;23.498;2023-05-23T11:16:29;99468.81;;;26.97;27.17
73594;BME280;64760;53.404;23.498;2023-05-23T11:21:54;99470.59;;;27.37;24.62
73594;BME280;64760;53.404;23.498;2023-05-23T11:24:22;99469.13;;;27.53;25.78
73594;BME280;64760;53.404;23.498;2023-05-23T11:26:56;99456.28;;;27.80;25.55
73594;BME280;64760;53.404;23.498;2023-05-23T11:29:27;99455.66;;;28.14;25.21
73594;BME280;64760;53.404;23.498;2023-05-23T11:31:57;99459.34;;;28.57;23.23
73594;BME280;64760;53.404;23.498;2023-05-23T11:34:26;99458.38;;;28.53;24.18
73594;BME280;64760;53.404;23.498;2023-05-23T11:36:55;99458.13;;;28.98;25.47
73594;BME280;64760;53.404;23.498;2023-05-23T11:39:22;99458.25;;;29.18;25.12
73594;BME280;64760;53.404;23.498;2023-05-23T11:42:02;99456.19;;;28.98;24.20
73594;BME280;64760;53.404;23.498;2023-05-23T11:44:28;99456.97;;;28.73;24.19
73594;BME280;64760;53.404;23.498;2023-05-23T11:47:02;99451.34;;;28.30;23.38
73594;BME280;64760;53.404;23.498;2023-05-23T11:49:34;99453.66;;;28.06;24.34
73594;BME280;64760;53.404;23.498;2023-05-23T11:52:01;99446.16;;;27.97;24.01
73594;BME280;64760;53.404;23.498;2023-05-23T11:54:28;99452.41;;;27.81;25.28
73594;BME280;64760;53.404;23.498;2023-05-23T11:56:55;99450.03;;;27.96;24.14
73594;BME280;64760;53.404;23.498;2023-05-23T11:59:24;99450.91;;;28.06;24.46
73594;BME280;64760;53.404;23.498;2023-05-23T12:01:52;99452.50;;;28.37;23.46
73594;BME280;64760;53.404;23.498;2023-05-23T12:04:18;99456.09;;;28.46;24.11
73594;BME280;64760;53.404;23.498;2023-05-23T12:06:48;99448.47;;;28.52;24.34
73594;BME280;64760;53.404;23.498;2023-05-23T12:09:15;99444.22;;;28.55;24.47
73594;BME280;64760;53.404;23.498;2023-05-23T12:11:43;99447.56;;;28.74;23.23
73594;BME280;64760;53.404;23.498;2023-05-23T12:14:14;99444.91;;;28.60;23.33
73594;BME280;64760;53.404;23.498;2023-05-23T12:16:45;99442.91;;;28.43;24.12
73594;BME280;64760;53.404;23.498;2023-05-23T12:19:15;99434.16;;;28.41;23.60
73594;BME280;64760;53.404;23.498;2023-05-23T12:21:45;99437.72;;;28.33;23.88
73594;BME280;64760;53.404;23.498;2023-05-23T12:24:17;99435.75;;;28.25;23.90
73594;BME280;64760;53.404;23.498;2023-05-23T12:27:01;99439.16;;;28.22;22.82
73594;BME280;64760;53.404;23.498;2023-05-23T12:29:34;99426.81;;;28.20;21.74
73594;BME280;64760;53.404;23.498;2023-05-23T12:32:05;99435.78;;;28.03;23.19
73594;BME280;64760;53.404;23.498;2023-05-23T12:34:32;99426.09;;;28.06;22.55
73594;BME280;64760;53.404;23.498;2023-05-23T12:37:00;99423.22;;;28.11;22.60
73594;BME280;64760;53.404;23.498;2023-05-23T12:39:30;99427.53;;;28.03;24.27
73594;BME280;64760;53.404;23.498;2023-05-23T12:42:08;99419.97;;;28.09;23.83
73594;BME280;64760;53.404;23.498;2023-05-23T12:44:35;99413.06;;;27.89;24.69
73594;BME280;64760;53.404;23.498;2023-05-23T12:47:03;99426.34;;;27.87;23.92
73594;BME280;64760;53.404;23.498;2023-05-23T12:49:29;99423.22;;;27.80;24.10
73594;BME280;64760;53.404;23.498;2023-05-23T12:51:58;99417.53;;;27.76;23.75
73594;BME280;64760;53.404;23.498;2023-05-23T12:54:24;99415.44;;;27.73;24.58
73594;BME280;64760;53.404;23.498;2023-05-23T12:56:50;99420.59;;;27.66;24.02
73594;BME280;64760;53.404;23.498;2023-05-23T12:59:17;99416.19;;;27.65;23.56
73594;BME280;64760;53.404;23.498;2023-05-23T13:01:43;99412.75;;;27.60;24.82
73594;BME280;64760;53.404;23.498;2023-05-23T13:04:09;99414.69;;;27.50;24.94
73594;BME280;64760;53.404;23.498;2023-05-23T13:06:36;99413.78;;;27.41;25.28
73594;BME280;64760;53.404;23.498;2023-05-23T13:09:02;99417.59;;;27.54;24.99
73594;BME280;64760;53.404;23.498;2023-05-23T13:11:29;99414.03;;;27.53;23.82
73594;BME280;64760;53.404;23.498;2023-05-23T13:17:46;99411.84;;;27.73;23.69
73594;BME280;64760;53.404;23.498;2023-05-23T13:20:12;99408.13;;;27.69;23.54
73594;BME280;64760;53.404;23.498;2023-05-23T13:22:40;99410.09;;;27.77;24.40
73594;BME280;64760;53.404;23.498;2023-05-23T13:25:06;99404.59;;;27.77;24.55